KBFD/BFD METAR and TAF weather

Enter ICAO airport designator
Station Type Date Time Source
KBFD METAR 2019/08/17 10:43 UTC NOAA

KBFD 171043Z AUTO 14004KT 2 1/2SM BR CLR 13/13 A3004 RMK AO2 T01280128


Station Type Date Time Source
KBFD Decoded METAR 2019/08/17 10:43 UTC NOAA

Station name not available
Aug 17, 2019 - 06:43 AM EDT / 2019.08.17 1043 UTC
Wind: from the SE (140 degrees) at 5 MPH (4 KT):0
Visibility: 2 1/2 mile(s):0
Sky conditions: clear
Weather: mist
Temperature: 55.0 F (12.8 C)
Dew Point: 55.0 F (12.8 C)
Relative Humidity: 100%
Pressure (altimeter): 30.04 in. Hg (1017 hPa)
ob: KBFD 171043Z AUTO 14004KT 2 1/2SM BR CLR 13/13 A3004 RMK AO2 T01280128
cycle: 10

Station Type Date Time Source
KBFD TAF 2019/08/17 10:54 UTC NOAA

TAF
AMD KBFD 170952Z 1710/1806 VRB03KT 1SM BR VV002
FM171300 VRB03KT 4SM BR BKN005
FM171500 20005KT P6SM SCT025
FM171800 24008KT P6SM VCTS BKN050CB
FM172300 VRB04KT P6SM SCT100

Example: see airport list